Terminal Aerodrome Forecast
Issued by NWS Tampa Bay Area, FL

Home | Current Version | Previous Version | Text Only | Print | Product List | Glossary On
Versions: 1 2 3 4 5 6 7 8 9 10 11 12
000
FTUS42 KTBW 312300
TAFFMY
TAF
KFMY 312331Z 0100/0124 08010KT P6SM SCT250
     FM010500 08006KT P6SM SCT250
     FM011500 13012G18KT P6SM SCT040 SCT250=

USA.gov is the U.S. government's official web portal to all federal, state and local government web resources and services.